Time;durP1;ratioP1;P1;durP2;ratioP2;P2;SDS_P1;SDS_P2;PMS_P1;PMS_P2;Temp;Humidity;BMP_temperature;BMP_pressure;BME280_temperature;BME280_humidity;BME280_pressure;Samples;Min_cycle;Max_cycle;Signal;HPM_P1;HPM_P2
2022/03/18 00:01:02;;;;;;;0.00;0.00;;;10.70;81.60;;;;;;4090628;28;20043;-72
2022/03/18 00:03:27;;;;;;;0.00;0.00;;;10.70;81.80;;;;;;4103722;28;20420;-72
2022/03/18 00:05:56;;;;;;;0.00;0.00;;;10.70;82.00;;;;;;4090403;28;20035;-71
2022/03/18 00:08:18;;;;;;;0.00;0.00;;;10.70;82.20;;;;;;4091461;28;20106;-74
2022/03/18 00:10:44;;;;;;;0.00;0.00;;;10.60;82.30;;;;;;4119708;28;20113;-72
2022/03/18 00:13:09;;;;;;;0.00;0.00;;;10.70;82.60;;;;;;4090271;28;20052;-72
2022/03/18 00:15:34;;;;;;;0.00;0.00;;;10.60;82.70;;;;;;4103362;28;20109;-71
2022/03/18 00:18:01;;;;;;;0.00;0.00;;;10.50;83.00;;;;;;4103689;28;20449;-71
2022/03/18 00:20:23;;;;;;;0.00;0.00;;;10.50;83.20;;;;;;4076660;28;20054;-70
2022/03/18 00:22:49;;;;;;;0.00;0.00;;;10.50;83.20;;;;;;4103840;28;20043;-73
2022/03/18 00:25:13;;;;;;;0.00;0.00;;;10.50;83.30;;;;;;4117167;28;20066;-71
2022/03/18 00:27:39;;;;;;;0.00;0.00;;;10.50;83.40;;;;;;4103473;28;20106;-73
2022/03/18 00:30:05;;;;;;;0.00;0.00;;;10.60;83.30;;;;;;4103612;28;20051;-72
2022/03/18 00:32:29;;;;;;;0.00;0.00;;;10.60;83.30;;;;;;4106044;28;20130;-73
2022/03/18 00:34:51;;;;;;;0.00;0.00;;;10.70;83.20;;;;;;4116860;28;20440;-74
2022/03/18 00:37:16;;;;;;;0.00;0.00;;;10.70;83.20;;;;;;4103306;28;20043;-70
2022/03/18 00:39:38;;;;;;;0.00;0.00;;;10.60;83.40;;;;;;4103155;28;20055;-71
2022/03/18 00:42:05;;;;;;;0.00;0.00;;;10.60;83.50;;;;;;4103484;28;20643;-72
2022/03/18 00:44:32;;;;;;;0.00;0.00;;;10.60;84.10;;;;;;4119588;28;20116;-72
2022/03/18 00:46:58;;;;;;;0.00;0.00;;;10.60;83.50;;;;;;4132710;28;20517;-72
2022/03/18 00:52:06;;;;;;;0.00;0.00;;;10.60;83.40;;;;;;4105913;28;20233;-73
2022/03/18 00:54:29;;;;;;;0.00;0.00;;;10.50;83.60;;;;;;4118665;28;20055;-71
2022/03/18 00:56:51;;;;;;;0.00;0.00;;;10.40;83.80;;;;;;4132235;28;20050;-71
2022/03/18 00:59:13;;;;;;;0.00;0.00;;;10.50;84.00;;;;;;4105442;28;20058;-73
2022/03/18 01:01:38;;;;;;;0.00;0.00;;;10.50;83.80;;;;;;4132120;28;20058;-72
2022/03/18 01:04:00;;;;;;;0.00;0.00;;;10.60;83.80;;;;;;4118882;28;20077;-70
2022/03/18 01:06:28;;;;;;;0.00;0.00;;;10.60;83.70;;;;;;4132450;28;20092;-72
2022/03/18 01:08:54;;;;;;;0.00;0.00;;;10.60;83.70;;;;;;4132916;28;20050;-72
2022/03/18 01:11:26;;;;;;;0.00;0.00;;;10.60;83.90;;;;;;4106840;28;20505;-75
2022/03/18 01:13:53;;;;;;;0.00;0.00;;;10.50;83.90;;;;;;4133670;28;20050;-74
2022/03/18 01:16:17;;;;;;;0.00;0.00;;;10.50;83.90;;;;;;4105356;28;20131;-73
2022/03/18 01:18:48;;;;;;;0.00;0.00;;;10.50;84.00;;;;;;4134498;28;20049;-72
2022/03/18 01:21:26;;;;;;;0.00;0.00;;;10.50;84.00;;;;;;4121070;28;20393;-71
2022/03/18 01:23:50;;;;;;;0.00;0.00;;;10.60;84.00;;;;;;4118872;28;20043;-74
2022/03/18 01:26:15;;;;;;;0.00;0.00;;;10.60;83.70;;;;;;4131339;28;20077;-73
2022/03/18 01:28:48;;;;;;;0.00;0.00;;;10.60;83.70;;;;;;4118303;28;20125;-74
2022/03/18 01:31:13;;;;;;;0.00;0.00;;;10.60;83.70;;;;;;4132646;28;20454;-71
2022/03/18 01:33:47;;;;;;;;;;;10.60;83.70;;;;;;4116128;28;20118;-70
2022/03/18 01:36:16;;;;;;;0.00;0.00;;;10.60;83.70;;;;;;4118890;28;20368;-72
2022/03/18 01:38:44;;;;;;;0.00;0.00;;;10.60;83.60;;;;;;4115653;28;20466;-73
2022/03/18 01:41:08;;;;;;;0.00;0.00;;;10.50;83.60;;;;;;4116357;28;20070;-72
2022/03/18 01:43:45;;;;;;;0.00;0.00;;;10.50;83.60;;;;;;4102239;28;20050;-73
2022/03/18 01:46:09;;;;;;;0.00;0.00;;;10.50;83.80;;;;;;4131608;28;20051;-70
2022/03/18 01:48:38;;;;;;;0.00;0.00;;;10.60;83.70;;;;;;4120298;28;20034;-73
2022/03/18 01:51:23;;;;;;;0.00;0.00;;;10.60;83.70;;;;;;4118265;28;20090;-71
2022/03/18 01:53:46;;;;;;;0.00;0.00;;;10.60;83.70;;;;;;4115464;28;20050;-74
2022/03/18 01:56:20;;;;;;;0.00;0.00;;;10.60;83.90;;;;;;4131855;28;20050;-73
2022/03/18 01:58:46;;;;;;;0.00;0.00;;;10.50;84.10;;;;;;4132237;28;20050;-72
2022/03/18 02:01:16;;;;;;;0.00;0.00;;;10.50;84.20;;;;;;4131545;28;20046;-71
2022/03/18 02:03:42;;;;;;;0.00;0.00;;;10.50;84.40;;;;;;4118512;28;20449;-70
2022/03/18 02:06:13;;;;;;;0.00;0.00;;;10.50;84.40;;;;;;4118913;28;20084;-71
2022/03/18 02:08:45;;;;;;;0.00;0.00;;;10.40;84.90;;;;;;4118969;28;20062;-72
2022/03/18 02:11:15;;;;;;;0.00;0.00;;;10.40;85.40;;;;;;4102681;28;20042;-75
2022/03/18 02:13:38;;;;;;;0.00;0.00;;;10.40;85.70;;;;;;4115407;28;20047;-71
2022/03/18 02:16:10;;;;;;;0.00;0.00;;;10.40;85.60;;;;;;4101882;28;20098;-71
2022/03/18 02:18:45;;;;;;;0.00;0.00;;;10.40;85.90;;;;;;4131462;28;20048;-72
2022/03/18 02:21:22;;;;;;;0.00;0.00;;;10.30;86.00;;;;;;4131340;28;20054;-70
2022/03/18 02:23:54;;;;;;;0.00;0.00;;;10.40;86.10;;;;;;4130049;28;20051;-74
2022/03/18 02:26:25;;;;;;;0.00;0.00;;;10.30;86.10;;;;;;4118900;28;20401;-70
2022/03/18 02:28:48;;;;;;;0.00;0.00;;;10.30;86.20;;;;;;4118017;28;20046;-71
2022/03/18 02:31:15;;;;;;;0.00;0.00;;;10.40;86.40;;;;;;4117804;28;20057;-72
2022/03/18 02:33:40;;;;;;;0.00;0.00;;;10.30;86.50;;;;;;4102351;28;20470;-73
2022/03/18 02:36:04;;;;;;;0.00;0.00;;;10.20;86.80;;;;;;4101768;28;20057;-71
2022/03/18 02:38:29;;;;;;;0.00;0.00;;;10.20;86.90;;;;;;4091124;28;20485;-70
2022/03/18 02:40:51;;;;;;;0.00;0.00;;;10.20;87.20;;;;;;4117768;28;20061;-73
2022/03/18 02:43:15;;;;;;;0.00;0.00;;;10.10;87.40;;;;;;4108733;28;20425;-71
2022/03/18 02:45:40;;;;;;;0.00;0.00;;;10.20;87.50;;;;;;4113962;28;20043;-71
2022/03/18 02:48:07;;;;;;;0.00;0.00;;;10.20;87.50;;;;;;4112429;28;20454;-71
2022/03/18 02:50:31;;;;;;;0.00;0.00;;;10.30;87.30;;;;;;4085437;29;20052;-70
2022/03/18 02:52:53;;;;;;;0.00;0.00;;;10.30;87.20;;;;;;4099033;28;20165;-73
2022/03/18 02:55:16;;;;;;;0.00;0.00;;;10.30;87.30;;;;;;4101563;28;20046;-73
2022/03/18 02:57:38;;;;;;;0.00;0.00;;;10.30;87.10;;;;;;4101366;28;20058;-74
2022/03/18 03:00:01;;;;;;;0.00;0.00;;;10.30;87.20;;;;;;4101625;28;20127;-73
2022/03/18 03:02:25;;;;;;;0.00;0.00;;;10.30;87.40;;;;;;4101223;28;20366;-73
2022/03/18 03:10:14;;;;;;;0.00;0.00;;;10.40;87.30;;;;;;4101081;28;20514;-72
2022/03/18 03:12:39;;;;;;;0.00;0.00;;;10.20;87.70;;;;;;4115015;28;20051;-71
2022/03/18 03:15:02;;;;;;;0.00;0.00;;;10.30;87.70;;;;;;4114641;28;20533;-73
2022/03/18 03:17:23;;;;;;;0.00;0.00;;;10.30;87.50;;;;;;4114869;28;20101;-74
2022/03/18 03:19:50;;;;;;;0.00;0.00;;;10.20;87.90;;;;;;4101356;28;20098;-73
2022/03/18 03:22:12;;;;;;;0.00;0.00;;;10.20;88.10;;;;;;4101081;28;20118;-72
2022/03/18 03:24:35;;;;;;;0.00;0.00;;;10.20;88.10;;;;;;4085802;28;20448;-72
2022/03/18 03:26:59;;;;;;;0.00;0.00;;;10.20;88.30;;;;;;4101921;29;20133;-73
2022/03/18 03:29:25;;;;;;;0.00;0.00;;;10.20;88.20;;;;;;4091354;28;20051;-75
2022/03/18 03:31:50;;;;;;;0.00;0.00;;;10.20;88.50;;;;;;4117481;28;20529;-73
2022/03/18 03:34:16;;;;;;;0.00;0.00;;;10.20;88.60;;;;;;4090246;28;20051;-75
2022/03/18 03:36:40;;;;;;;0.00;0.00;;;10.10;88.70;;;;;;4104180;28;20051;-71
2022/03/18 03:39:04;;;;;;;0.00;0.00;;;10.20;88.90;;;;;;4090849;28;20052;-74
2022/03/18 03:41:29;;;;;;;0.00;0.00;;;10.10;88.90;;;;;;4103957;28;20047;-73
2022/03/18 03:43:52;;;;;;;0.00;0.00;;;10.20;89.10;;;;;;4104088;28;20043;-72
2022/03/18 03:46:17;;;;;;;0.00;0.00;;;10.10;89.10;;;;;;4130471;28;20050;-72
2022/03/18 03:48:41;;;;;;;0.00;0.00;;;10.10;89.00;;;;;;4117201;28;20039;-70
2022/03/18 03:51:06;;;;;;;0.00;0.00;;;10.20;89.10;;;;;;4117295;28;20054;-72
2022/03/18 03:53:28;;;;;;;0.00;0.00;;;10.10;89.00;;;;;;4117421;28;20042;-73
2022/03/18 03:55:54;;;;;;;0.00;0.00;;;10.10;88.90;;;;;;4117378;28;20066;-72
2022/03/18 03:58:18;;;;;;;0.00;0.00;;;10.10;88.80;;;;;;4130518;28;20101;-71
2022/03/18 04:00:41;;;;;;;0.00;0.00;;;10.00;88.90;;;;;;4117099;28;20047;-70
2022/03/18 04:03:06;;;;;;;0.00;0.00;;;9.90;89.20;;;;;;4117267;28;20050;-73
2022/03/18 04:05:30;;;;;;;0.00;0.00;;;9.90;89.30;;;;;;4104020;28;20050;-72
2022/03/18 04:07:54;;;;;;;0.00;0.00;;;9.90;89.40;;;;;;4103960;28;20054;-72
2022/03/18 04:10:21;;;;;;;0.00;0.00;;;9.90;89.30;;;;;;4103834;28;20051;-73
2022/03/18 04:12:43;;;;;;;0.00;0.00;;;9.90;89.50;;;;;;4117122;28;20147;-72
2022/03/18 04:15:08;;;;;;;0.00;0.00;;;9.80;89.70;;;;;;4117246;28;20418;-74
2022/03/18 04:17:41;;;;;;;0.00;0.00;;;9.90;89.60;;;;;;4130654;28;20512;-73
2022/03/18 04:20:05;;;;;;;0.00;0.00;;;9.90;89.40;;;;;;4117330;28;20074;-72
2022/03/18 04:22:29;;;;;;;0.00;0.00;;;9.90;89.60;;;;;;4116673;28;20093;-73
2022/03/18 04:24:55;;;;;;;0.00;0.00;;;9.90;89.70;;;;;;4117086;28;20047;-73
2022/03/18 04:27:18;;;;;;;0.00;0.00;;;9.90;89.70;;;;;;4103646;28;20040;-74
2022/03/18 04:29:42;;;;;;;0.00;0.00;;;9.90;89.50;;;;;;4103526;28;20047;-72
2022/03/18 04:32:05;;;;;;;0.00;0.00;;;9.90;89.60;;;;;;4103389;28;20055;-74
2022/03/18 04:34:32;;;;;;;0.00;0.00;;;10.00;89.60;;;;;;4103507;28;20442;-72
2022/03/18 04:36:54;;;;;;;0.00;0.00;;;9.90;89.80;;;;;;4116455;28;20054;-72
2022/03/18 04:39:16;;;;;;;0.00;0.00;;;9.90;90.00;;;;;;4116865;28;20109;-72
2022/03/18 04:41:41;;;;;;;0.00;0.00;;;9.90;90.00;;;;;;4130276;28;20065;-71
2022/03/18 04:44:03;;;;;;;0.00;0.00;;;9.90;90.10;;;;;;4116759;28;20054;-74
2022/03/18 04:46:28;;;;;;;0.00;0.00;;;9.80;90.20;;;;;;4102989;28;20114;-71
2022/03/18 04:48:52;;;;;;;0.00;0.00;;;9.80;90.20;;;;;;4119015;28;20246;-73
2022/03/18 04:51:16;;;;;;;0.00;0.00;;;9.80;90.20;;;;;;4116787;28;20425;-72
2022/03/18 04:53:44;;;;;;;0.00;0.00;;;9.80;90.30;;;;;;4116298;28;20049;-71
2022/03/18 04:57:15;;;;;;;0.00;0.00;;;9.90;90.30;;;;;;4105714;28;20067;-72
2022/03/18 04:58:52;;;;;;;0.00;0.00;;;9.90;90.40;;;;;;4119117;28;20117;-72
2022/03/18 05:01:14;;;;;;;0.00;0.00;;;9.80;90.40;;;;;;4116535;28;20042;-73
2022/03/18 05:03:39;;;;;;;0.00;0.00;;;9.80;90.40;;;;;;4102477;28;20093;-73
2022/03/18 05:06:03;;;;;;;0.00;0.00;;;9.80;90.50;;;;;;4116871;28;20125;-73
2022/03/18 05:08:28;;;;;;;0.00;0.00;;;9.80;90.50;;;;;;4102558;28;20055;-72
2022/03/18 05:10:52;;;;;;;0.00;0.00;;;9.70;90.50;;;;;;4103238;28;20078;-71
2022/03/18 05:13:18;;;;;;;0.00;0.00;;;9.70;90.60;;;;;;4116475;28;20047;-72
2022/03/18 05:15:41;;;;;;;0.00;0.00;;;9.70;90.70;;;;;;4103092;28;20047;-71
2022/03/18 05:18:08;;;;;;;0.00;0.00;;;9.70;90.60;;;;;;4105478;28;20450;-71
2022/03/18 05:20:34;;;;;;;0.00;0.00;;;9.80;90.60;;;;;;4105177;28;20047;-74
2022/03/18 05:23:02;;;;;;;0.00;0.00;;;9.80;90.60;;;;;;4119231;28;20536;-74
2022/03/18 05:25:24;;;;;;;0.00;0.00;;;9.70;90.60;;;;;;4119127;28;20047;-70
2022/03/18 05:27:49;;;;;;;0.00;0.00;;;9.60;90.70;;;;;;4118809;28;20050;-71
2022/03/18 05:30:14;;;;;;;0.00;0.00;;;9.60;90.80;;;;;;4132193;28;20054;-71
2022/03/18 05:32:40;;;;;;;0.00;0.00;;;9.70;90.80;;;;;;4119085;28;20051;-71
2022/03/18 05:35:06;;;;;;;0.00;0.00;;;9.70;90.70;;;;;;4119211;28;20127;-71
2022/03/18 05:37:35;;;;;;;0.00;0.00;;;9.70;90.60;;;;;;4118534;28;20050;-70
2022/03/18 05:39:57;;;;;;;0.00;0.00;;;9.70;90.70;;;;;;4118809;28;20043;-73
2022/03/18 05:42:19;;;;;;;0.00;0.00;;;9.70;90.70;;;;;;4118285;28;20129;-71
2022/03/18 05:44:41;;;;;;;0.00;0.00;;;9.80;90.70;;;;;;4118988;28;20045;-71
2022/03/18 05:47:04;;;;;;;0.00;0.00;;;9.70;90.60;;;;;;4115889;28;20415;-70
2022/03/18 05:49:27;;;;;;;0.00;0.00;;;9.70;90.60;;;;;;4099112;28;20047;-72
2022/03/18 05:51:49;;;;;;;0.00;0.00;;;9.70;90.60;;;;;;4105310;28;20050;-69
2022/03/18 05:54:12;;;;;;;0.00;0.00;;;9.60;90.70;;;;;;4117246;28;20047;-73
2022/03/18 05:56:54;;;;;;;0.00;0.00;;;9.60;90.80;;;;;;4106361;28;20133;-71
2022/03/18 05:59:21;;;;;;;0.00;0.00;;;9.60;90.90;;;;;;4131987;28;20050;-70
2022/03/18 06:01:45;;;;;;;0.00;0.00;;;9.60;90.80;;;;;;4105105;28;20066;-71
2022/03/18 06:04:10;;;;;;;0.00;0.00;;;9.70;90.70;;;;;;4102191;28;20051;-70
2022/03/18 06:06:33;;;;;;;0.00;0.00;;;9.70;90.70;;;;;;4102601;28;20059;-71
2022/03/18 06:11:52;;;;;;;0.00;0.00;;;9.60;90.60;;;;;;4118479;28;20050;-73
2022/03/18 06:14:16;;;;;;;0.00;0.00;;;9.60;90.60;;;;;;4115386;28;20050;-74
2022/03/18 06:16:39;;;;;;;0.00;0.00;;;9.60;90.70;;;;;;4093457;28;20035;-69
2022/03/18 06:19:01;;;;;;;0.00;0.00;;;9.60;90.60;;;;;;4091626;28;20150;-72
2022/03/18 06:21:30;;;;;;;0.00;0.00;;;9.60;90.70;;;;;;4091890;28;20057;-72
2022/03/18 06:23:54;;;;;;;0.00;0.00;;;9.60;90.70;;;;;;4118158;28;20086;-72
2022/03/18 06:26:16;;;;;;;0.00;0.00;;;9.60;90.60;;;;;;4129646;28;20050;-73
2022/03/18 06:28:45;;;;;;;0.00;0.00;;;9.60;90.70;;;;;;4091784;28;20047;-72
2022/03/18 06:31:11;;;;;;;0.00;0.00;;;9.60;90.60;;;;;;4115703;28;20097;-74
2022/03/18 06:33:34;;;;;;;0.00;0.00;;;9.50;90.60;;;;;;4102097;28;20078;-72
2022/03/18 06:35:58;;;;;;;0.00;0.00;;;9.40;90.70;;;;;;4102167;28;20047;-72
2022/03/18 06:38:22;;;;;;;0.00;0.00;;;9.40;90.80;;;;;;4128932;28;20104;-73
2022/03/18 06:40:44;;;;;;;0.00;0.00;;;9.30;90.80;;;;;;4088377;28;20059;-72
2022/03/18 06:43:07;;;;;;;0.00;0.00;;;9.40;90.90;;;;;;4110489;28;20462;-73
2022/03/18 06:45:29;;;;;;;0.00;0.00;;;9.50;90.70;;;;;;4131706;28;20042;-74
2022/03/18 06:47:53;;;;;;;0.00;0.00;;;9.50;90.50;;;;;;4118102;28;20090;-73
2022/03/18 06:50:18;;;;;;;0.00;0.00;;;9.40;90.70;;;;;;4105106;28;20051;-73
2022/03/18 06:52:41;;;;;;;0.00;0.00;;;9.40;90.80;;;;;;4131756;28;20057;-73
2022/03/18 06:55:10;;;;;;;0.00;0.00;;;9.40;90.70;;;;;;4131377;28;20109;-74
2022/03/18 06:57:35;;;;;;;0.00;0.00;;;9.50;90.60;;;;;;4118003;28;20147;-74
2022/03/18 06:59:57;;;;;;;0.00;0.00;;;9.60;90.40;;;;;;4105494;28;20051;-73
2022/03/18 07:02:19;;;;;;;0.00;0.00;;;9.60;90.30;;;;;;4078355;28;20069;-72
2022/03/18 07:04:44;;;;;;;0.00;0.00;;;9.60;90.30;;;;;;4091869;28;20047;-73
2022/03/18 07:07:06;;;;;;;0.00;0.00;;;9.60;90.10;;;;;;4092061;28;20074;-74
2022/03/18 07:09:28;;;;;;;0.00;0.00;;;9.60;90.20;;;;;;4105256;28;20467;-73
2022/03/18 07:11:52;;;;;;;0.00;0.00;;;9.70;90.10;;;;;;4091582;28;20040;-75
2022/03/18 07:14:19;;;;;;;0.00;0.00;;;9.60;89.90;;;;;;4120862;28;20105;-72
2022/03/18 07:19:25;;;;;;;0.00;0.00;;;9.50;90.10;;;;;;4134017;28;20109;-72
2022/03/18 07:21:47;;;;;;;0.00;0.00;;;9.50;90.10;;;;;;4120775;28;20051;-72
2022/03/18 07:24:09;;;;;;;0.00;0.00;;;9.60;90.20;;;;;;4120533;28;20057;-74
2022/03/18 07:26:31;;;;;;;0.00;0.00;;;9.60;90.00;;;;;;4121298;28;20125;-73
2022/03/18 07:29:03;;;;;;;0.00;0.00;;;9.50;90.00;;;;;;4107269;28;20442;-76
2022/03/18 07:31:25;;;;;;;0.00;0.00;;;9.60;90.10;;;;;;4121021;28;20050;-73
2022/03/18 07:33:48;;;;;;;0.00;0.00;;;9.70;89.70;;;;;;4120648;28;20054;-72
2022/03/18 07:36:10;;;;;;;0.00;0.00;;;9.70;89.90;;;;;;4106703;28;20047;-72
2022/03/18 07:38:34;;;;;;;0.00;0.00;;;9.80;89.70;;;;;;4107232;28;20385;-73
2022/03/18 07:40:57;;;;;;;0.00;0.00;;;9.90;89.60;;;;;;4134269;28;20475;-73
2022/03/18 07:43:19;;;;;;;0.00;0.00;;;9.80;89.60;;;;;;4106841;28;20134;-72
2022/03/18 07:45:41;;;;;;;0.00;0.00;;;9.90;89.70;;;;;;4119265;28;20470;-73
2022/03/18 07:48:08;;;;;;;0.00;0.00;;;10.00;89.60;;;;;;4133812;28;20057;-73
2022/03/18 07:50:34;;;;;;;0.00;0.00;;;10.00;89.50;;;;;;4111788;28;20070;-72
2022/03/18 07:53:07;;;;;;;0.00;0.00;;;10.00;89.10;;;;;;4120464;28;20053;-72
2022/03/18 07:55:31;;;;;;;0.00;0.00;;;10.20;89.50;;;;;;4117841;28;20119;-72
2022/03/18 07:57:59;;;;;;;0.00;0.00;;;10.10;88.30;;;;;;4104239;28;20043;-72
2022/03/18 08:00:24;;;;;;;0.00;0.00;;;10.10;88.50;;;;;;4117282;28;20058;-73
2022/03/18 08:02:52;;;;;;;0.00;0.00;;;9.90;88.30;;;;;;4111775;28;20122;-74
2022/03/18 08:05:18;;;;;;;0.00;0.00;;;9.80;88.30;;;;;;4106676;28;20389;-74
2022/03/18 08:07:41;;;;;;;0.00;0.00;;;9.80;88.40;;;;;;4106461;28;20086;-72
2022/03/18 08:10:08;;;;;;;0.00;0.00;;;9.80;88.30;;;;;;4119539;28;20063;-72
2022/03/18 08:12:33;;;;;;;0.00;0.00;;;9.80;88.40;;;;;;4117045;28;20199;-72
2022/03/18 08:14:58;;;;;;;0.00;0.00;;;9.70;88.20;;;;;;4106797;28;20042;-73
2022/03/18 08:17:26;;;;;;;0.00;0.00;;;9.70;88.20;;;;;;4120158;28;20405;-72
2022/03/18 08:19:50;;;;;;;0.00;0.00;;;9.60;88.60;;;;;;4106602;28;20065;-74
2022/03/18 08:22:17;;;;;;;0.00;0.00;;;9.70;88.90;;;;;;4090130;28;20051;-73
2022/03/18 08:24:41;;;;;;;0.00;0.00;;;9.70;88.70;;;;;;4117114;28;20094;-73
2022/03/18 08:27:08;;;;;;;0.00;0.00;;;9.70;88.90;;;;;;4104050;28;20444;-75
2022/03/18 08:29:30;;;;;;;0.00;0.00;;;9.80;88.40;;;;;;4112782;28;20047;-73
2022/03/18 08:31:52;;;;;;;0.00;0.00;;;9.80;88.30;;;;;;4119984;28;20124;-72
2022/03/18 08:34:17;;;;;;;0.00;0.00;;;9.80;88.20;;;;;;4119578;28;20090;-71
2022/03/18 08:36:39;;;;;;;0.00;0.00;;;9.90;88.20;;;;;;4106326;28;20051;-74
2022/03/18 08:39:03;;;;;;;0.00;0.00;;;9.80;88.00;;;;;;4119548;28;20085;-75
2022/03/18 08:41:29;;;;;;;0.00;0.00;;;9.80;88.30;;;;;;4093412;28;20056;-74
2022/03/18 08:43:54;;;;;;;0.00;0.00;;;9.70;88.10;;;;;;4106350;28;20105;-73
2022/03/18 08:46:16;;;;;;;0.00;0.00;;;9.80;88.10;;;;;;4096582;28;20053;-72
2022/03/18 08:48:38;;;;;;;0.00;0.00;;;9.90;87.80;;;;;;4106114;28;20043;-72
2022/03/18 08:51:00;;;;;;;0.00;0.00;;;9.70;87.80;;;;;;4133306;28;20053;-72
2022/03/18 08:53:22;;;;;;;0.00;0.00;;;9.80;88.10;;;;;;4106374;28;20059;-72
2022/03/18 08:55:44;;;;;;;0.00;0.00;;;9.80;87.90;;;;;;4106344;28;20540;-73
2022/03/18 08:58:09;;;;;;;0.00;0.00;;;9.80;88.00;;;;;;4105601;28;20051;-74
2022/03/18 09:00:32;;;;;;;0.00;0.00;;;9.90;88.10;;;;;;4093150;28;20043;-74
2022/03/18 09:02:54;;;;;;;0.00;0.00;;;9.90;87.70;;;;;;4105957;28;20047;-72
2022/03/18 09:05:19;;;;;;;0.00;0.00;;;10.00;87.60;;;;;;4119435;28;20402;-71
2022/03/18 09:07:41;;;;;;;0.00;0.00;;;10.00;87.40;;;;;;4105859;28;20074;-72
2022/03/18 09:10:08;;;;;;;0.00;0.00;;;10.00;87.00;;;;;;4116273;28;20327;-71
2022/03/18 09:12:33;;;;;;;0.00;0.00;;;9.90;87.30;;;;;;4106643;28;20066;-74
2022/03/18 09:14:55;;;;;;;0.00;0.00;;;10.00;87.00;;;;;;4132500;28;20100;-71
2022/03/18 09:17:23;;;;;;;0.00;0.00;;;9.90;86.80;;;;;;4119158;28;20105;-72
2022/03/18 09:19:48;;;;;;;0.00;0.00;;;9.90;87.00;;;;;;4132791;28;20046;-71
2022/03/18 09:22:16;;;;;;;0.00;0.00;;;9.90;86.90;;;;;;4116756;28;20117;-71
2022/03/18 09:24:43;;;;;;;0.00;0.00;;;9.80;87.10;;;;;;4092386;28;20043;-72
2022/03/18 09:27:09;;;;;;;0.00;0.00;;;9.90;86.60;;;;;;4110907;28;20102;-72
2022/03/18 09:29:31;;;;;;;0.00;0.00;;;9.90;86.60;;;;;;4101235;28;20095;-72
2022/03/18 09:31:56;;;;;;;0.00;0.00;;;9.90;86.50;;;;;;4105883;28;20047;-72
2022/03/18 09:34:24;;;;;;;0.00;0.00;;;9.80;86.60;;;;;;4118304;28;20055;-72
2022/03/18 09:36:48;;;;;;;0.00;0.00;;;10.00;86.50;;;;;;4119151;28;20133;-72
2022/03/18 09:39:13;;;;;;;0.00;0.00;;;10.00;86.30;;;;;;4106135;28;20084;-72
2022/03/18 09:41:35;;;;;;;0.00;0.00;;;10.10;86.10;;;;;;4105621;28;20228;-74
2022/03/18 09:43:57;;;;;;;0.00;0.00;;;10.00;85.90;;;;;;4119266;28;20528;-72
2022/03/18 09:46:19;;;;;;;0.00;0.00;;;9.90;85.90;;;;;;4118315;28;20086;-72
2022/03/18 09:49:02;;;;;;;0.00;0.00;;;9.90;85.80;;;;;;4105263;28;20055;-71
2022/03/18 09:51:24;;;;;;;0.00;0.00;;;9.90;85.80;;;;;;4108201;28;20043;-73
2022/03/18 09:54:19;;;;;;;0.00;0.00;;;10.00;85.70;;;;;;4088799;28;20078;-71
2022/03/18 09:56:44;;;;;;;0.00;0.00;;;10.00;85.30;;;;;;4102652;28;20106;-72
2022/03/18 09:59:08;;;;;;;0.00;0.00;;;10.00;85.30;;;;;;4063002;28;20048;-73
2022/03/18 10:01:31;;;;;;;0.00;0.00;;;10.10;85.10;;;;;;4111804;28;20047;-72
2022/03/18 10:03:53;;;;;;;0.00;0.00;;;10.00;85.10;;;;;;4116977;28;20151;-73
2022/03/18 10:06:15;;;;;;;0.00;0.00;;;10.00;85.00;;;;;;4118263;28;20070;-72
2022/03/18 10:08:39;;;;;;;0.00;0.00;;;9.80;85.60;;;;;;4116008;28;20078;-72
2022/03/18 10:11:27;;;;;;;0.00;0.00;;;9.70;85.90;;;;;;4110149;28;20146;-72
2022/03/18 10:14:02;;;;;;;0.00;0.00;;;9.80;86.30;;;;;;4115741;28;20076;-73
2022/03/18 10:16:36;;;;;;;0.00;0.00;;;9.90;86.10;;;;;;4112509;28;20145;-73
2022/03/18 10:18:59;;;;;;;0.00;0.00;;;9.80;85.80;;;;;;4073505;29;20063;-72
2022/03/18 10:21:21;;;;;;;0.00;0.00;;;9.90;85.80;;;;;;4105551;28;20465;-71
2022/03/18 10:23:48;;;;;;;0.00;0.00;;;9.90;85.90;;;;;;4099865;28;20047;-72
2022/03/18 10:26:15;;;;;;;0.00;0.00;;;9.80;85.90;;;;;;4101797;28;20106;-72
2022/03/18 10:28:41;;;;;;;0.00;0.00;;;9.80;86.20;;;;;;4108899;28;20139;-72
2022/03/18 10:31:19;;;;;;;0.00;0.00;;;9.80;86.10;;;;;;4105322;28;20046;-71
2022/03/18 10:37:04;;;;;;;0.00;0.00;;;9.80;86.40;;;;;;4118448;28;20104;-72
2022/03/18 10:39:29;;;;;;;0.00;0.00;;;9.70;86.80;;;;;;4125370;28;20138;-71
2022/03/18 10:41:55;;;;;;;0.00;0.00;;;9.90;86.70;;;;;;4105449;28;20055;-71
2022/03/18 10:44:17;;;;;;;0.00;0.00;;;9.80;86.60;;;;;;4120929;28;20047;-71
2022/03/18 10:46:42;;;;;;;0.00;0.00;;;9.60;86.80;;;;;;4121305;28;20118;-73
2022/03/18 10:49:06;;;;;;;0.00;0.00;;;9.70;87.00;;;;;;4121467;28;20050;-73
2022/03/18 10:51:30;;;;;;;0.00;0.00;;;9.90;86.80;;;;;;4110320;28;20057;-73
2022/03/18 10:53:56;;;;;;;0.00;0.00;;;9.80;86.40;;;;;;4119853;28;20409;-73
2022/03/18 10:56:18;;;;;;;0.00;0.00;;;9.60;86.80;;;;;;4120770;28;20050;-73
2022/03/18 10:58:41;;;;;;;0.00;0.00;;;9.60;87.00;;;;;;4116419;28;20051;-72
2022/03/18 11:01:03;;;;;;;0.00;0.00;;;9.70;87.30;;;;;;4105250;28;20478;-73
2022/03/18 11:03:30;;;;;;;0.00;0.00;;;9.70;87.00;;;;;;4105484;28;20050;-71
2022/03/18 11:06:02;;;;;;;0.00;0.00;;;9.70;87.10;;;;;;4105166;28;20098;-73
2022/03/18 11:08:35;;;;;;;0.00;0.00;;;9.70;86.90;;;;;;4120581;28;20047;-73
2022/03/18 11:14:01;;;;;;;0.00;0.00;;;9.90;86.40;;;;;;4107583;28;20130;-71
2022/03/18 11:16:31;;;;;;;0.00;0.00;;;10.10;86.00;;;;;;4106871;28;20051;-73
2022/03/18 11:18:53;;;;;;;0.00;0.00;;;10.10;85.40;;;;;;4121035;28;20106;-73
2022/03/18 11:21:17;;;;;;;0.00;0.00;;;10.00;85.40;;;;;;4118491;28;20047;-72
2022/03/18 11:23:42;;;;;;;0.00;0.00;;;10.00;85.30;;;;;;4104621;28;20062;-75
2022/03/18 11:26:05;;;;;;;0.00;0.00;;;10.00;85.40;;;;;;4104858;28;20043;-74
2022/03/18 11:28:27;;;;;;;0.00;0.00;;;10.00;85.60;;;;;;4117987;28;20038;-71
2022/03/18 11:31:09;;;;;;;0.00;0.00;;;10.10;84.90;;;;;;4104835;28;20043;-73
2022/03/18 11:33:35;;;;;;;0.00;0.00;;;10.10;84.50;;;;;;4105061;28;20366;-71
2022/03/18 11:36:00;;;;;;;0.00;0.00;;;10.00;84.80;;;;;;4104783;28;20042;-72
2022/03/18 11:38:23;;;;;;;0.00;0.00;;;9.90;84.60;;;;;;4090601;28;20060;-71
2022/03/18 11:41:00;;;;;;;0.00;0.00;;;9.90;84.80;;;;;;4105053;28;20544;-71
2022/03/18 11:43:36;;;;;;;;;;;10.00;84.70;;;;;;4104998;28;20426;-72
2022/03/18 11:46:13;;;;;;;0.00;0.00;;;10.00;84.70;;;;;;4090853;28;19970;-71
2022/03/18 11:48:41;;;;;;;0.00;0.00;;;10.10;84.30;;;;;;4104355;28;20043;-73
2022/03/18 11:51:41;;;;;;;0.00;0.00;;;10.20;84.10;;;;;;4104892;28;20062;-74
2022/03/18 11:54:25;;;;;;;0.00;0.00;;;10.30;84.10;;;;;;4104551;28;20055;-73
2022/03/18 11:56:48;;;;;;;0.00;0.00;;;10.20;84.30;;;;;;4061915;29;20044;-72
2022/03/18 11:59:25;;;;;;;0.00;0.00;;;10.20;84.20;;;;;;4102024;28;20434;-73
2022/03/18 12:01:54;;;;;;;0.00;0.00;;;10.20;84.00;;;;;;4102032;28;20134;-72
2022/03/18 12:04:41;;;;;;;0.00;0.00;;;10.20;84.00;;;;;;4101389;28;20126;-73
2022/03/18 12:07:24;;;;;;;0.00;0.00;;;10.10;84.00;;;;;;4092810;29;20438;-72
2022/03/18 12:09:47;;;;;;;0.00;0.00;;;10.20;84.10;;;;;;4088433;29;20059;-72
2022/03/18 12:12:16;;;;;;;0.00;0.00;;;10.30;84.00;;;;;;4089155;28;20171;-71
2022/03/18 12:14:40;;;;;;;0.00;0.00;;;10.40;83.70;;;;;;4133420;28;20081;-71
2022/03/18 12:17:02;;;;;;;0.00;0.00;;;10.50;83.50;;;;;;4120010;28;20062;-72
2022/03/18 12:19:38;;;;;;;0.00;0.00;;;10.70;83.00;;;;;;4106568;28;20086;-71
2022/03/18 12:22:05;;;;;;;0.00;0.00;;;10.70;82.70;;;;;;4120024;28;20065;-74
2022/03/18 12:24:30;;;;;;;0.00;0.00;;;10.80;82.70;;;;;;4106424;28;20042;-72
2022/03/18 12:26:52;;;;;;;0.00;0.00;;;10.90;82.40;;;;;;4106546;28;20059;-72
2022/03/18 12:29:25;;;;;;;0.00;0.00;;;10.90;82.30;;;;;;4119866;28;20106;-73
2022/03/18 12:32:00;;;;;;;0.00;0.00;;;10.90;82.30;;;;;;4133622;28;20054;-71
2022/03/18 12:34:22;;;;;;;0.00;0.00;;;11.00;82.10;;;;;;4119399;28;20055;-70
2022/03/18 12:36:47;;;;;;;0.00;0.00;;;11.00;81.30;;;;;;4119788;28;20051;-71
2022/03/18 12:39:14;;;;;;;0.00;0.00;;;11.00;81.50;;;;;;4119806;28;20090;-72
2022/03/18 12:41:37;;;;;;;0.00;0.00;;;11.00;82.00;;;;;;4119735;28;20385;-71
2022/03/18 12:44:06;;;;;;;0.00;0.00;;;11.00;81.40;;;;;;4119813;28;20306;-71
2022/03/18 12:46:31;;;;;;;0.00;0.00;;;11.10;81.60;;;;;;4119637;28;20050;-71
2022/03/18 12:48:53;;;;;;;0.00;0.00;;;11.10;81.10;;;;;;4106011;28;20490;-70
2022/03/18 12:51:15;;;;;;;0.00;0.00;;;11.10;80.60;;;;;;4119461;28;20047;-72
2022/03/18 12:53:37;;;;;;;0.00;0.00;;;11.00;80.60;;;;;;4119675;28;20142;-73
2022/03/18 12:56:08;;;;;;;0.00;0.00;;;11.10;80.80;;;;;;4119169;28;20047;-71
2022/03/18 12:58:39;;;;;;;0.00;0.00;;;11.10;80.90;;;;;;4119125;28;20047;-71
2022/03/18 13:01:21;;;;;;;0.00;0.00;;;11.30;80.50;;;;;;4119319;28;20101;-73
2022/03/18 13:03:51;;;;;;;0.00;0.00;;;11.50;80.50;;;;;;4133231;28;20146;-71
2022/03/18 13:06:21;;;;;;;0.00;0.00;;;11.70;79.50;;;;;;4118882;28;20063;-72